Time;durP1;ratioP1;P1;durP2;ratioP2;P2;SDS_P1;SDS_P2;PMS_P1;PMS_P2;Temp;Humidity;BMP_temperature;BMP_pressure;BME280_temperature;BME280_humidity;BME280_pressure;Samples;Min_cycle;Max_cycle;Signal;HPM_P1;HPM_P2
2022/10/29 00:00:40;;;;;;;7.65;4.47;;;;;;;12.45;100.00;101199.84;6328686;28;20044;-78
2022/10/29 00:03:41;;;;;;;8.07;4.82;;;;;;;12.47;100.00;101198.00;6351430;27;20110;-77
2022/10/29 00:06:42;;;;;;;10.02;4.60;;;;;;;12.55;100.00;101202.84;6372227;27;20539;-78
2022/10/29 00:09:46;;;;;;;9.68;4.80;;;;;;;12.56;100.00;101201.91;6372068;27;20039;-78
2022/10/29 00:12:47;;;;;;;8.98;4.05;;;;;;;12.55;100.00;101208.09;6372469;27;20483;-78
2022/10/29 00:15:48;;;;;;;9.15;4.47;;;;;;;12.47;100.00;101205.84;6372218;27;20043;-78
2022/10/29 00:18:51;;;;;;;14.15;4.90;;;;;;;12.46;100.00;101218.09;6353694;27;20109;-78
2022/10/29 00:21:52;;;;;;;9.05;4.90;;;;;;;12.37;100.00;101208.09;6371911;27;20043;-78
2022/10/29 00:24:52;;;;;;;6.90;3.97;;;;;;;12.35;100.00;101207.31;6336326;27;20054;-78
2022/10/29 00:27:55;;;;;;;9.93;4.95;;;;;;;12.14;100.00;101208.38;6353471;27;20045;-78
2022/10/29 00:30:56;;;;;;;10.55;4.43;;;;;;;12.16;100.00;101217.84;6371819;27;20039;-78
2022/10/29 00:33:57;;;;;;;8.18;4.70;;;;;;;12.16;100.00;101222.25;6371589;27;20506;-78
2022/10/29 00:36:57;;;;;;;8.18;4.65;;;;;;;12.13;100.00;101225.00;6353608;27;20100;-77
2022/10/29 00:39:58;;;;;;;7.63;4.10;;;;;;;12.24;100.00;101225.31;6371571;27;20121;-78
2022/10/29 00:43:16;;;;;;;8.25;4.60;;;;;;;12.24;100.00;101222.72;6336183;28;20110;-78
2022/10/29 00:46:17;;;;;;;7.85;4.25;;;;;;;12.29;100.00;101216.34;6371210;27;20051;-78
2022/10/29 00:49:18;;;;;;;5.78;3.35;;;;;;;12.35;100.00;101217.78;6353155;28;20042;-78
2022/10/29 00:52:23;;;;;;;6.13;3.70;;;;;;;12.35;100.00;101214.31;6352646;28;20505;-78
2022/10/29 00:55:24;;;;;;;6.72;3.83;;;;;;;12.35;100.00;101211.72;6371502;28;20035;-78
2022/10/29 00:58:25;;;;;;;8.93;4.38;;;;;;;12.37;100.00;101209.84;6329931;28;20127;-78
2022/10/29 01:01:26;;;;;;;7.60;4.35;;;;;;;12.41;100.00;101214.00;6310771;28;20122;-78
2022/10/29 01:04:28;;;;;;;6.95;3.65;;;;;;;12.35;100.00;101198.63;6327650;28;20133;-78
2022/10/29 01:07:30;;;;;;;6.13;3.78;;;;;;;12.32;100.00;101202.25;6310711;28;20055;-78
2022/10/29 01:10:39;;;;;;;8.95;4.10;;;;;;;12.33;100.00;101211.78;6327635;28;20039;-78
2022/10/29 01:13:56;;;;;;;7.38;3.08;;;;;;;12.33;100.00;101198.69;6345905;28;20433;-78
2022/10/29 01:17:09;;;;;;;6.60;3.22;;;;;;;12.38;100.00;101196.69;6345561;28;20047;-78
2022/10/29 01:20:25;;;;;;;6.40;4.15;;;;;;;12.43;100.00;101197.31;6345678;28;20039;-78
2022/10/29 01:23:50;;;;;;;7.35;3.67;;;;;;;12.50;100.00;101196.09;6345422;28;20480;-78
2022/10/29 01:27:24;;;;;;;4.53;3.20;;;;;;;12.46;100.00;101185.84;6327311;28;20043;-78
2022/10/29 01:30:55;;;;;;;6.28;3.20;;;;;;;12.46;100.00;101183.22;6327511;28;20043;-78
2022/10/29 01:34:05;;;;;;;8.95;4.20;;;;;;;12.46;100.00;101180.63;6345223;28;20442;-78
2022/10/29 01:37:05;;;;;;;6.85;3.83;;;;;;;12.47;100.00;101184.91;6327408;28;20048;-78
2022/10/29 01:40:25;;;;;;;5.82;3.28;;;;;;;12.44;100.00;101172.84;6327322;28;20066;-78
2022/10/29 01:43:49;;;;;;;7.72;3.47;;;;;;;12.48;100.00;101168.28;6327404;28;20043;-78
2022/10/29 01:47:00;;;;;;;6.00;3.50;;;;;;;12.36;100.00;101168.91;6327090;28;20051;-79
2022/10/29 01:50:05;;;;;;;5.85;3.28;;;;;;;12.27;100.00;101172.81;6327179;28;20048;-79
2022/10/29 01:53:09;;;;;;;5.15;3.08;;;;;;;12.25;100.00;101166.81;6327105;28;20047;-79
2022/10/29 01:56:09;;;;;;;6.57;3.25;;;;;;;12.23;100.00;101161.69;6327032;28;20064;-79
2022/10/29 01:59:12;;;;;;;5.80;3.05;;;;;;;12.25;100.00;101159.84;6327145;28;20050;-79
2022/10/29 02:02:51;;;;;;;7.53;3.97;;;;;;;12.38;100.00;101167.06;6327019;28;20554;-79
2022/10/29 02:05:51;;;;;;;7.55;3.95;;;;;;;12.42;100.00;101169.44;6349583;28;20097;-79
2022/10/29 02:09:01;;;;;;;9.32;4.28;;;;;;;12.40;100.00;101163.44;6349458;28;20047;-79
2022/10/29 02:12:26;;;;;;;7.43;3.70;;;;;;;12.29;100.00;101163.13;6331353;28;20150;-79
2022/10/29 02:15:41;;;;;;;6.25;3.33;;;;;;;12.32;100.00;101162.16;6331280;28;20040;-79
2022/10/29 02:18:47;;;;;;;9.10;3.58;;;;;;;12.37;100.00;101147.88;6349430;28;20047;-79
2022/10/29 02:21:50;;;;;;;6.55;3.70;;;;;;;12.38;100.00;101146.97;6331358;28;20460;-79
2022/10/29 02:24:51;;;;;;;7.40;3.70;;;;;;;12.39;100.00;101143.41;6349203;28;20036;-79
2022/10/29 02:27:51;;;;;;;7.22;3.75;;;;;;;12.40;100.00;101144.28;6330855;28;20148;-78
2022/10/29 02:30:52;;;;;;;5.70;3.65;;;;;;;12.44;100.00;101143.22;6331035;28;20051;-78
2022/10/29 02:33:53;;;;;;;7.60;3.92;;;;;;;12.40;100.00;101146.91;6313696;28;20134;-78
2022/10/29 02:36:53;;;;;;;8.45;3.88;;;;;;;12.25;100.00;101132.81;6330734;28;20403;-78
2022/10/29 02:39:54;;;;;;;6.75;3.70;;;;;;;12.23;100.00;101138.13;6330741;28;20044;-78
2022/10/29 02:42:55;;;;;;;7.38;3.78;;;;;;;12.22;100.00;101131.19;6330633;28;20389;-78
2022/10/29 02:46:20;;;;;;;5.68;3.42;;;;;;;12.32;100.00;101143.84;6330395;28;20051;-78
2022/10/29 02:49:21;;;;;;;6.38;3.38;;;;;;;12.32;100.00;101138.59;6330469;28;20555;-78
2022/10/29 02:52:22;;;;;;;5.82;3.40;;;;;;;12.34;100.00;101128.91;6348611;28;20046;-77
2022/10/29 02:55:23;;;;;;;4.85;3.03;;;;;;;12.34;100.00;101134.13;6313152;28;20142;-78
2022/10/29 02:58:23;;;;;;;6.72;3.38;;;;;;;12.28;100.00;101114.34;6348438;28;20595;-78
2022/10/29 03:01:25;;;;;;;7.30;4.32;;;;;;;12.35;100.00;101125.34;6330172;28;20066;-78
2022/10/29 03:04:26;;;;;;;8.63;3.97;;;;;;;12.37;100.00;101128.72;6330098;28;20070;-78
2022/10/29 03:07:26;;;;;;;7.55;4.10;;;;;;;12.39;100.00;101132.09;6348028;28;20142;-78
2022/10/29 03:10:27;;;;;;;8.43;4.18;;;;;;;12.32;100.00;101115.88;6329968;28;20492;-78
2022/10/29 03:13:28;;;;;;;7.95;4.13;;;;;;;12.36;100.00;101119.19;6347888;28;20039;-78
2022/10/29 03:16:28;;;;;;;5.35;3.38;;;;;;;12.35;100.00;101123.56;6347575;28;20548;-78
2022/10/29 03:19:29;;;;;;;7.07;3.90;;;;;;;12.26;100.00;101126.66;6347791;28;20549;-78
2022/10/29 03:22:30;;;;;;;4.93;2.88;;;;;;;12.24;100.00;101115.44;6329523;28;20122;-78
2022/10/29 03:25:30;;;;;;;6.53;3.17;;;;;;;12.19;100.00;101110.44;6329477;28;20043;-78
2022/10/29 03:28:31;;;;;;;8.30;3.80;;;;;;;12.22;100.00;101114.66;6347432;28;20036;-78
2022/10/29 03:31:32;;;;;;;6.53;3.97;;;;;;;12.17;100.00;101111.41;6347571;28;20381;-78
2022/10/29 03:34:33;;;;;;;5.82;3.75;;;;;;;12.14;100.00;101116.81;6347383;28;20036;-78
2022/10/29 03:37:33;;;;;;;10.00;4.68;;;;;;;12.14;100.00;101112.44;6347321;28;20075;-78
2022/10/29 03:40:34;;;;;;;7.20;4.35;;;;;;;12.18;100.00;101116.56;6347541;28;20092;-78
2022/10/29 03:43:38;;;;;;;5.10;3.10;;;;;;;12.23;100.00;101111.09;6347269;28;20040;-78
2022/10/29 03:46:39;;;;;;;6.28;3.10;;;;;;;12.22;100.00;101114.66;6346961;28;20047;-78
2022/10/29 03:49:40;;;;;;;8.10;4.45;;;;;;;12.18;100.00;101102.66;6346991;28;20047;-78
2022/10/29 03:52:40;;;;;;;8.93;4.35;;;;;;;12.19;100.00;101094.75;6328943;28;20035;-78
2022/10/29 03:55:41;;;;;;;7.28;3.90;;;;;;;12.15;100.00;101105.41;6328811;28;20110;-78
2022/10/29 03:58:42;;;;;;;9.77;4.13;;;;;;;12.24;100.00;101108.41;6328964;28;20044;-78
2022/10/29 04:01:42;;;;;;;7.25;3.80;;;;;;;12.22;100.00;101114.66;6362505;27;20039;-77
2022/10/29 04:04:43;;;;;;;13.32;4.30;;;;;;;12.20;100.00;101111.28;6329942;28;20061;-78
2022/10/29 04:07:44;;;;;;;8.10;4.43;;;;;;;12.21;100.00;101110.34;6329606;28;20055;-78
2022/10/29 04:10:46;;;;;;;6.88;3.70;;;;;;;12.19;100.00;101114.81;6356752;27;20479;-78
2022/10/29 04:13:46;;;;;;;7.28;3.80;;;;;;;12.19;100.00;101113.06;6354983;27;20387;-78
2022/10/29 04:16:47;;;;;;;8.32;4.07;;;;;;;12.27;100.00;101128.34;6373191;27;20039;-78
2022/10/29 04:19:48;;;;;;;7.13;4.10;;;;;;;12.26;100.00;101124.03;6373303;27;20043;-78
2022/10/29 04:22:51;;;;;;;9.82;4.50;;;;;;;12.22;100.00;101125.13;6354707;27;20055;-78
2022/10/29 04:25:59;;;;;;;7.03;3.83;;;;;;;12.29;100.00;101121.25;6336977;27;20479;-77
2022/10/29 04:28:59;;;;;;;7.22;4.18;;;;;;;12.30;100.00;101115.94;6335463;27;20475;-78
2022/10/29 04:32:00;;;;;;;15.23;5.82;;;;;;;12.37;100.00;101123.50;6353607;27;20042;-78
2022/10/29 04:35:01;;;;;;;6.95;3.47;;;;;;;12.30;100.00;101121.19;6353509;27;20070;-78
2022/10/29 04:38:11;;;;;;;5.05;3.30;;;;;;;12.35;100.00;101125.34;6331969;28;20039;-78
2022/10/29 04:41:11;;;;;;;5.50;3.20;;;;;;;12.23;100.00;101130.28;6346332;28;20039;-78
2022/10/29 04:44:12;;;;;;;4.50;2.72;;;;;;;12.22;100.00;101125.97;6327953;28;20065;-78
2022/10/29 04:47:15;;;;;;;5.45;3.72;;;;;;;12.20;100.00;101124.34;6350564;27;20073;-78
2022/10/29 04:50:16;;;;;;;5.07;2.95;;;;;;;12.23;100.00;101132.91;6371554;28;20122;-78
2022/10/29 04:53:17;;;;;;;6.47;3.78;;;;;;;12.23;100.00;101124.19;6336029;28;20043;-78
2022/10/29 04:56:18;;;;;;;4.32;2.55;;;;;;;12.16;100.00;101118.44;6371295;28;20335;-78
2022/10/29 04:59:19;;;;;;;8.80;3.63;;;;;;;12.24;100.00;101123.28;6353072;28;20043;-78
2022/10/29 05:02:19;;;;;;;6.72;3.80;;;;;;;12.18;100.00;101123.59;6352955;28;20399;-77
2022/10/29 05:05:20;;;;;;;7.75;4.15;;;;;;;12.20;100.00;101124.34;6351780;28;20522;-78
2022/10/29 05:08:21;;;;;;;7.55;4.10;;;;;;;12.22;100.00;101125.97;6310514;28;20048;-78
2022/10/29 05:11:27;;;;;;;5.95;3.28;;;;;;;12.26;100.00;101124.03;6327618;28;20036;-78
2022/10/29 05:14:28;;;;;;;5.72;3.10;;;;;;;12.27;100.00;101117.88;6346216;28;20043;-78
2022/10/29 05:17:29;;;;;;;4.15;2.92;;;;;;;12.23;100.00;101109.34;6327330;28;20495;-78
2022/10/29 05:20:32;;;;;;;5.38;3.40;;;;;;;12.24;100.00;101112.81;6327482;28;20085;-78
2022/10/29 05:23:33;;;;;;;6.05;3.30;;;;;;;12.18;100.00;101116.56;6327337;28;20036;-78
2022/10/29 05:26:33;;;;;;;6.28;3.70;;;;;;;12.21;100.00;101113.81;6327416;28;20535;-77
2022/10/29 05:29:34;;;;;;;4.38;3.20;;;;;;;12.18;100.00;101116.56;6327086;28;20480;-78
2022/10/29 05:32:35;;;;;;;7.72;4.43;;;;;;;12.19;100.00;101117.41;6345447;28;20078;-78
2022/10/29 05:35:36;;;;;;;6.35;3.72;;;;;;;12.20;100.00;101116.50;6327293;28;20043;-78
2022/10/29 05:38:37;;;;;;;7.65;4.10;;;;;;;12.23;100.00;101114.59;6348494;28;20484;-78
2022/10/29 05:41:38;;;;;;;6.20;3.65;;;;;;;12.17;100.00;101109.66;6315304;28;20048;-78
2022/10/29 05:44:41;;;;;;;9.52;4.50;;;;;;;12.21;100.00;101113.81;6361268;27;20070;-78
2022/10/29 05:47:44;;;;;;;4.72;3.40;;;;;;;12.17;100.00;101116.66;6361593;27;20048;-78
2022/10/29 05:50:46;;;;;;;6.40;3.75;;;;;;;12.15;100.00;101123.72;6351265;28;20040;-78
2022/10/29 05:53:47;;;;;;;7.13;4.03;;;;;;;12.17;100.00;101124.50;6316035;28;20439;-78
2022/10/29 05:56:48;;;;;;;7.07;3.80;;;;;;;12.20;100.00;101124.34;6334995;28;20050;-77
2022/10/29 05:59:48;;;;;;;8.10;4.25;;;;;;;12.11;100.00;101115.22;6314882;28;20396;-78
2022/10/29 06:02:52;;;;;;;7.70;3.85;;;;;;;12.16;100.00;101113.19;6349946;28;20040;-78
2022/10/29 06:05:55;;;;;;;10.13;5.07;;;;;;;12.04;100.00;101104.19;6332755;28;20036;-78
2022/10/29 06:08:56;;;;;;;10.38;6.38;;;;;;;12.22;100.00;101114.66;6350610;28;20036;-78
2022/10/29 06:11:59;;;;;;;12.88;6.25;;;;;;;12.21;100.00;101107.72;6332575;28;20122;-78
2022/10/29 06:15:02;;;;;;;8.95;5.57;;;;;;;12.27;100.00;101117.88;6332688;28;20051;-78
2022/10/29 06:18:04;;;;;;;8.50;4.80;;;;;;;12.25;100.00;101115.34;6315520;28;20044;-78
2022/10/29 06:21:05;;;;;;;10.15;5.65;;;;;;;12.34;100.00;101116.66;6332327;28;20048;-77
2022/10/29 06:24:06;;;;;;;9.68;5.85;;;;;;;12.35;100.00;101110.47;6350654;28;20040;-77
2022/10/29 06:27:06;;;;;;;13.75;5.75;;;;;;;12.34;100.00;101115.81;6315046;28;20146;-78
2022/10/29 06:30:08;;;;;;;11.80;5.07;;;;;;;12.25;100.00;101123.22;6374562;27;20539;-78
2022/10/29 06:33:09;;;;;;;10.15;5.55;;;;;;;12.36;100.00;101119.19;6338546;28;20040;-78
2022/10/29 06:36:09;;;;;;;9.93;5.20;;;;;;;12.30;100.00;101120.34;6330821;28;20395;-78
2022/10/29 06:39:10;;;;;;;15.40;6.00;;;;;;;12.37;100.00;101116.47;6333442;27;20513;-78
2022/10/29 06:42:11;;;;;;;9.95;5.78;;;;;;;12.44;100.00;101132.72;6338834;27;20158;-78
2022/10/29 06:45:12;;;;;;;12.77;6.18;;;;;;;12.45;100.00;101144.88;6374198;27;20039;-78
2022/10/29 06:48:15;;;;;;;10.88;5.75;;;;;;;12.49;100.00;101131.53;6373908;27;20055;-78
2022/10/29 06:51:16;;;;;;;9.68;5.35;;;;;;;12.60;100.00;101151.09;6355222;27;20054;-78
2022/10/29 06:54:16;;;;;;;9.45;5.65;;;;;;;12.63;100.00;101143.94;6353920;27;20035;-78
2022/10/29 06:57:17;;;;;;;12.88;5.45;;;;;;;12.64;100.00;101140.41;6348363;28;20403;-78
2022/10/29 07:00:18;;;;;;;8.13;4.65;;;;;;;12.62;100.00;101129.16;6330277;28;20145;-78
2022/10/29 07:03:19;;;;;;;9.98;5.00;;;;;;;12.65;100.00;101141.25;6330163;28;20036;-78
2022/10/29 07:06:20;;;;;;;12.55;5.45;;;;;;;12.59;100.00;101142.41;6313024;28;20055;-78
2022/10/29 07:09:23;;;;;;;11.93;5.65;;;;;;;12.60;100.00;101141.47;6329752;28;20074;-78
2022/10/29 07:12:26;;;;;;;11.00;5.22;;;;;;;12.58;100.00;101153.81;6348083;28;20061;-78
2022/10/29 07:15:28;;;;;;;13.20;6.68;;;;;;;12.60;100.00;101156.31;6345978;27;20043;-78
2022/10/29 07:18:31;;;;;;;9.32;5.80;;;;;;;12.66;100.00;101154.25;6373390;27;20047;-78
2022/10/29 07:21:34;;;;;;;11.00;5.97;;;;;;;12.68;100.00;101162.88;6373269;27;20399;-78
2022/10/29 07:24:37;;;;;;;10.90;5.30;;;;;;;12.64;100.00;101153.50;6354904;27;20043;-78
2022/10/29 07:27:38;;;;;;;19.48;6.60;;;;;;;12.69;100.00;101153.25;6372943;27;20046;-79
2022/10/29 07:30:39;;;;;;;11.48;6.50;;;;;;;12.69;100.00;101148.00;6373095;27;20035;-77
2022/10/29 07:33:42;;;;;;;13.80;6.77;;;;;;;12.79;100.00;101158.84;6354784;27;20043;-78
2022/10/29 07:36:45;;;;;;;14.18;6.70;;;;;;;12.82;100.00;101156.06;6354598;27;20050;-78
2022/10/29 07:39:46;;;;;;;18.15;6.95;;;;;;;12.84;100.00;101155.03;6372733;27;20072;-78
2022/10/29 07:42:51;;;;;;;10.88;6.30;;;;;;;12.88;100.00;101155.72;6354760;27;20039;-78
2022/10/29 07:45:52;;;;;;;11.45;5.93;;;;;;;12.96;100.00;101143.06;6354866;27;20038;-78
2022/10/29 07:48:52;;;;;;;13.13;6.85;;;;;;;12.91;100.00;101134.63;6354386;27;20039;-78
2022/10/29 07:51:53;;;;;;;13.38;6.43;;;;;;;12.90;100.00;101144.25;6354240;27;20051;-78
2022/10/29 07:54:54;;;;;;;15.63;6.47;;;;;;;12.89;100.00;101131.25;6337205;27;20089;-78
2022/10/29 07:58:00;;;;;;;11.15;6.05;;;;;;;12.92;100.00;101135.47;6354130;27;20123;-78
2022/10/29 08:01:01;;;;;;;12.88;6.32;;;;;;;12.78;100.00;101131.78;6353378;27;20036;-78
2022/10/29 08:04:01;;;;;;;14.20;6.78;;;;;;;12.81;100.00;101131.66;6354126;27;20035;-78
2022/10/29 08:07:02;;;;;;;13.95;6.80;;;;;;;12.76;100.00;101138.03;6345955;27;20039;-77
2022/10/29 08:10:03;;;;;;;14.05;6.90;;;;;;;12.86;100.00;101132.22;6313837;27;20073;-78
2022/10/29 08:13:06;;;;;;;13.85;7.57;;;;;;;12.95;100.00;101136.16;6313697;28;20121;-78
2022/10/29 08:16:07;;;;;;;15.98;7.60;;;;;;;12.88;100.00;101138.22;6335110;27;20403;-77
2022/10/29 08:19:08;;;;;;;16.88;6.85;;;;;;;13.00;100.00;101136.75;6352506;27;20126;-78
2022/10/29 08:22:12;;;;;;;15.50;7.10;;;;;;;13.13;100.00;101139.53;6353588;27;20493;-78
2022/10/29 08:25:13;;;;;;;15.73;7.72;;;;;;;13.04;100.00;101135.66;6371959;27;20039;-78
2022/10/29 08:28:15;;;;;;;14.25;7.15;;;;;;;13.02;100.00;101134.03;6337934;28;20445;-78
2022/10/29 08:31:15;;;;;;;15.90;7.93;;;;;;;12.99;100.00;101121.09;6311220;28;20059;-78
2022/10/29 08:34:16;;;;;;;17.13;8.02;;;;;;;13.09;100.00;101140.63;6346280;28;20039;-78
2022/10/29 08:37:17;;;;;;;17.63;7.28;;;;;;;13.10;100.00;101131.84;6337810;27;20118;-78
2022/10/29 08:40:26;;;;;;;16.83;7.35;;;;;;;13.20;100.00;101140.91;6344927;28;20114;-77
2022/10/29 08:43:29;;;;;;;12.25;7.22;;;;;;;13.19;100.00;101144.44;6321963;27;20043;-78
2022/10/29 08:46:45;;;;;;;14.27;6.38;;;;;;;13.09;100.00;101133.63;6343972;27;20059;-78
2022/10/29 08:50:22;;;;;;;15.02;7.70;;;;;;;13.12;100.00;101132.63;6335985;28;20078;-78
2022/10/29 08:53:33;;;;;;;20.35;8.00;;;;;;;13.21;100.00;101137.34;6352919;28;20509;-78
2022/10/29 08:56:35;;;;;;;17.17;8.23;;;;;;;13.15;100.00;101123.72;6340815;28;20048;-78
2022/10/29 08:59:55;;;;;;;15.30;7.82;;;;;;;13.12;100.00;101131.78;6329826;28;20036;-78
2022/10/29 09:02:58;;;;;;;19.00;7.90;;;;;;;13.18;100.00;101132.28;6313864;28;20070;-78
2022/10/29 09:06:18;;;;;;;14.45;7.13;;;;;;;13.23;100.00;101137.25;6331994;28;20050;-78
2022/10/29 09:09:33;;;;;;;16.10;8.05;;;;;;;13.17;100.00;101137.59;6327563;28;20500;-78
2022/10/29 09:12:46;;;;;;;18.45;8.02;;;;;;;13.19;100.00;101139.19;6312140;28;20079;-78
2022/10/29 09:16:16;;;;;;;18.35;8.05;;;;;;;13.14;100.00;101136.00;6332858;28;20438;-78
2022/10/29 09:19:26;;;;;;;19.52;8.13;;;;;;;13.09;100.00;101138.00;6334650;27;20385;-77
2022/10/29 09:22:44;;;;;;;16.27;7.90;;;;;;;13.04;100.00;101133.03;6345348;28;20499;-78
2022/10/29 09:25:56;;;;;;;19.73;8.57;;;;;;;13.15;100.00;101119.34;6351973;27;20440;-78
2022/10/29 09:29:33;;;;;;;21.05;8.43;;;;;;;13.30;100.00;101131.63;6375901;27;20075;-76
2022/10/29 09:32:43;;;;;;;16.35;8.35;;;;;;;13.25;100.00;101135.41;6354464;27;20051;-78
2022/10/29 09:35:52;;;;;;;18.50;9.10;;;;;;;13.14;100.00;101141.25;6376039;27;20046;-75
2022/10/29 09:39:03;;;;;;;20.70;8.77;;;;;;;13.23;100.00;101145.13;6357379;27;20050;-78
2022/10/29 09:42:11;;;;;;;17.70;8.70;;;;;;;13.32;100.00;101139.41;6375961;27;20498;-78
2022/10/29 09:45:15;;;;;;;14.52;8.30;;;;;;;13.33;100.00;101127.16;6375802;27;20035;-76
2022/10/29 09:48:43;;;;;;;16.95;7.80;;;;;;;13.45;100.00;101131.72;6327366;28;20206;-76
2022/10/29 09:52:00;;;;;;;13.75;7.43;;;;;;;13.42;100.00;101116.16;6323479;28;20090;-79
2022/10/29 09:55:05;;;;;;;18.60;8.30;;;;;;;13.58;100.00;101122.22;6318088;28;20060;-76
2022/10/29 09:58:06;;;;;;;17.50;8.10;;;;;;;13.47;100.00;101127.25;6315914;28;20064;-76
2022/10/29 10:01:07;;;;;;;19.08;8.38;;;;;;;13.41;100.00;101110.06;6313445;28;20039;-76
2022/10/29 10:04:30;;;;;;;20.95;9.70;;;;;;;13.47;100.00;101112.34;6307480;28;20036;-79
2022/10/29 10:07:30;;;;;;;18.05;9.30;;;;;;;13.44;100.00;101101.19;6318474;28;20055;-79
2022/10/29 10:10:33;;;;;;;18.77;8.50;;;;;;;13.57;100.00;101098.69;6321689;28;20475;-78
2022/10/29 10:13:35;;;;;;;;;;;;;;;13.45;100.00;101106.34;6320444;28;20099;-78
2022/10/29 10:16:36;;;;;;;;;;;;;;;13.43;100.00;101110.00;6280276;28;20380;-79
2022/10/29 10:19:43;;;;;;;14.43;6.35;;;;;;;13.45;100.00;101105.50;6297343;28;19927;-79
2022/10/29 10:22:47;;;;;;;20.67;8.60;;;;;;;13.45;100.00;101106.34;6298555;28;20071;-78
2022/10/29 10:25:49;;;;;;;19.80;9.73;;;;;;;13.42;100.00;101100.41;6317770;28;20036;-78
2022/10/29 10:29:20;;;;;;;20.77;9.32;;;;;;;13.59;100.00;101091.59;6321088;28;20089;-76
2022/10/29 10:32:24;;;;;;;17.75;9.40;;;;;;;13.55;100.00;101090.94;6313642;28;20055;-78
2022/10/29 10:35:30;;;;;;;18.80;9.73;;;;;;;13.47;100.00;101070.41;6322241;28;20032;-78
2022/10/29 10:38:57;;;;;;;18.80;9.65;;;;;;;13.43;100.00;101061.00;6302242;28;20040;-78
2022/10/29 10:42:03;;;;;;;21.67;9.15;;;;;;;13.44;100.00;101059.22;6309391;28;20052;-78
2022/10/29 10:45:16;;;;;;;19.17;8.80;;;;;;;13.48;100.00;101058.13;6286255;28;20130;-77
2022/10/29 10:48:17;;;;;;;23.70;10.48;;;;;;;13.52;100.00;101050.94;6346208;27;20547;-78
2022/10/29 10:51:29;;;;;;;19.73;9.23;;;;;;;13.43;100.00;101058.41;6338519;28;20035;-78
2022/10/29 10:54:44;;;;;;;20.80;9.65;;;;;;;13.62;100.00;101054.72;6328746;28;20046;-77
2022/10/29 10:57:52;;;;;;;20.52;9.25;;;;;;;13.61;100.00;101058.25;6346588;27;20039;-76
2022/10/29 11:00:59;;;;;;;23.35;9.20;;;;;;;13.61;100.00;101048.63;6353551;27;20527;-75
2022/10/29 11:04:17;;;;;;;17.42;9.18;;;;;;;13.52;100.00;101049.16;6353814;27;20043;-77
2022/10/29 11:07:19;;;;;;;16.58;8.30;;;;;;;13.54;100.00;101047.28;6357679;27;20047;-75
2022/10/29 11:10:33;;;;;;;19.63;9.00;;;;;;;13.58;100.00;101046.19;6363170;27;20097;-76
2022/10/29 11:13:38;;;;;;;16.70;8.82;;;;;;;13.60;100.00;101040.84;6354999;27;20039;-78
2022/10/29 11:16:42;;;;;;;22.60;10.93;;;;;;;13.48;100.00;101038.00;6373924;27;20047;-75
2022/10/29 11:19:50;;;;;;;23.17;10.18;;;;;;;13.36;100.00;101030.00;6373034;27;20398;-78
2022/10/29 11:23:19;;;;;;;18.55;9.95;;;;;;;13.44;100.00;101035.63;6373455;27;20081;-78
2022/10/29 11:26:31;;;;;;;26.55;9.93;;;;;;;13.47;100.00;101038.09;6363726;27;20058;-78
2022/10/29 11:29:51;;;;;;;19.88;10.82;;;;;;;13.58;100.00;101051.41;6373259;27;20042;-78
2022/10/29 11:33:14;;;;;;;25.30;10.75;;;;;;;13.69;100.00;101056.03;6354997;27;20108;-76
2022/10/29 11:36:21;;;;;;;26.67;9.90;;;;;;;13.66;100.00;101054.44;6372935;27;20065;-78
2022/10/29 11:39:30;;;;;;;23.45;10.40;;;;;;;13.63;100.00;101052.00;6354639;27;20168;-78
2022/10/29 11:42:31;;;;;;;17.40;10.30;;;;;;;13.69;100.00;101059.53;6353691;27;20409;-75
2022/10/29 11:45:43;;;;;;;20.98;10.80;;;;;;;13.73;100.00;101040.97;6354489;27;20040;-78
2022/10/29 11:49:03;;;;;;;24.35;10.50;;;;;;;13.81;100.00;101051.84;6353753;27;20051;-78
2022/10/29 11:52:22;;;;;;;29.75;11.80;;;;;;;13.80;100.00;101047.56;6372659;27;20070;-78
2022/10/29 11:56:05;;;;;;;21.25;9.98;;;;;;;13.78;100.00;101036.31;6353973;27;20503;-78
2022/10/29 11:59:35;;;;;;;16.35;9.43;;;;;;;13.70;100.00;101039.38;6354182;27;20402;-75
2022/10/29 12:02:53;;;;;;;19.15;9.45;;;;;;;13.79;100.00;101041.44;6336956;27;20047;-75
2022/10/29 12:06:20;;;;;;;27.70;12.52;;;;;;;14.10;100.00;101040.50;6338193;27;20043;-78
2022/10/29 12:09:45;;;;;;;28.13;14.48;;;;;;;14.13;100.00;101038.63;6340733;27;20596;-78
2022/10/29 12:12:54;;;;;;;24.45;11.00;;;;;;;13.91;100.00;101032.84;6315099;27;20054;-75
2022/10/29 12:16:29;;;;;;;18.83;10.30;;;;;;;13.87;100.00;101028.72;6332737;28;20043;-78
2022/10/29 12:19:45;;;;;;;20.60;10.30;;;;;;;14.04;100.00;101027.75;6316336;27;20058;-76
2022/10/29 12:23:05;;;;;;;19.33;10.30;;;;;;;14.04;100.00;101017.25;6344517;27;20121;-76
2022/10/29 12:26:36;;;;;;;21.45;11.25;;;;;;;14.05;100.00;101016.28;6353496;27;20047;-78
2022/10/29 12:29:46;;;;;;;25.77;12.50;;;;;;;13.95;100.00;101007.28;6353252;27;20140;-75
2022/10/29 12:33:00;;;;;;;30.70;12.00;;;;;;;13.99;100.00;101013.22;6342408;28;20415;-78
2022/10/29 12:36:10;;;;;;;19.23;11.35;;;;;;;14.10;100.00;100995.88;6321161;27;20138;-78
2022/10/29 12:39:23;;;;;;;23.80;12.90;;;;;;;14.07;100.00;100988.19;6336179;27;20043;-78
2022/10/29 12:42:26;;;;;;;30.10;12.43;;;;;;;14.06;100.00;100988.25;6350060;27;20036;-75
2022/10/29 12:45:26;;;;;;;;;;;;;;;14.08;100.00;100982.00;6328303;28;20419;-75
2022/10/29 12:48:44;;;;;;;27.02;14.05;;;;;;;14.05;100.00;100976.09;6342725;27;19919;-78
2022/10/29 12:51:59;;;;;;;28.85;13.98;;;;;;;13.90;100.00;100957.72;6371258;27;20054;-78
2022/10/29 12:55:03;;;;;;;28.05;12.85;;;;;;;13.94;100.00;100968.88;6353075;28;20039;-76
2022/10/29 12:58:41;;;;;;;35.08;15.68;;;;;;;13.90;100.00;100967.38;6353023;28;20206;-78
2022/10/29 13:01:43;;;;;;;27.00;13.20;;;;;;;13.98;100.00;100969.53;6352750;28;20043;-76
2022/10/29 13:05:08;;;;;;;36.85;14.20;;;;;;;13.93;100.00;100972.44;6351692;28;20053;-79
2022/10/29 13:08:26;;;;;;;28.02;13.15;;;;;;;13.85;100.00;100979.91;6355749;28;20050;-78
2022/10/29 13:11:46;;;;;;;25.60;13.85;;;;;;;13.89;100.00;100970.94;6349169;28;20091;-78
2022/10/29 13:15:07;;;;;;;28.95;14.98;;;;;;;13.96;100.00;100968.78;6332532;28;20051;-78
2022/10/29 13:18:11;;;;;;;28.77;12.90;;;;;;;13.99;100.00;100973.84;6347159;28;20047;-75
2022/10/29 13:21:11;;;;;;;33.67;13.18;;;;;;;13.98;100.00;100974.78;6345438;28;20047;-75
2022/10/29 13:24:15;;;;;;;34.22;13.60;;;;;;;13.98;100.00;100967.75;6352651;28;20483;-75
2022/10/29 13:27:16;;;;;;;28.95;14.18;;;;;;;13.89;100.00;100961.28;6352382;28;20069;-75
2022/10/29 13:30:20;;;;;;;24.80;13.50;;;;;;;13.86;100.00;100963.25;6363600;28;20471;-75
2022/10/29 13:33:20;;;;;;;30.55;13.18;;;;;;;13.83;100.00;100960.81;6335664;28;20104;-75
2022/10/29 13:36:21;;;;;;;30.05;14.02;;;;;;;13.88;100.00;100956.97;6327100;28;20056;-74
2022/10/29 13:39:22;;;;;;;37.75;13.90;;;;;;;13.85;100.00;100954.53;6345195;28;20069;-75
2022/10/29 13:42:23;;;;;;;38.20;17.38;;;;;;;13.90;100.00;100955.09;6326720;28;20075;-75
2022/10/29 13:45:23;;;;;;;31.60;14.88;;;;;;;13.94;100.00;100954.91;6310024;28;20047;-75
2022/10/29 13:48:30;;;;;;;28.88;13.70;;;;;;;13.82;100.00;100952.09;6309661;28;20059;-75
2022/10/29 13:51:40;;;;;;;25.75;13.27;;;;;;;13.90;100.00;100946.41;6309814;28;20063;-74
2022/10/29 13:54:53;;;;;;;28.30;12.88;;;;;;;13.92;100.00;100952.41;6309920;28;20079;-75
2022/10/29 13:58:00;;;;;;;;;;;;;;;13.88;100.00;100946.47;6345580;28;20480;-75
2022/10/29 14:01:10;;;;;;;28.85;12.68;;;;;;;13.79;100.00;100941.78;6331353;28;20288;-74
2022/10/29 14:04:37;;;;;;;32.17;15.35;;;;;;;13.81;100.00;100939.91;6349351;28;20470;-74
2022/10/29 14:08:00;;;;;;;28.80;13.65;;;;;;;13.76;100.00;100936.72;6303275;28;20052;-75
2022/10/29 14:11:06;;;;;;;;;;;;;;;13.88;100.00;100919.41;6331634;28;20040;-75